Terminal Aerodrome Forecast
Issued by NWS Boston, MA

Home | Current Version | Previous Version | Text Only | Print | Product List | Glossary On
Versions: 1 2 3 4 5 6 7 8 9 10 11 12 13 14 15 16 17 18 19 20 21 22 23 24 25 26 27
570
FTUS41 KBOX 141723
TAFORH
TAF
KORH 141723Z 1418/1518 30010G19KT P6SM SKC
     FM142300 28006KT P6SM SKC
     FM151500 22005KT P6SM SCT200
     FM151700 20005KT P6SM BKN110=

USA.gov is the U.S. government's official web portal to all federal, state and local government web resources and services.